Time;durP1;ratioP1;P1;durP2;ratioP2;P2;SDS_P1;SDS_P2;PMS_P1;PMS_P2;Temp;Humidity;BMP_temperature;BMP_pressure;BME280_temperature;BME280_humidity;BME280_pressure;Samples;Min_cycle;Max_cycle;Signal;HPM_P1;HPM_P2
2020/12/25 00:02:44;;;;;;;3.50;2.80;;;;;;;2.70;86.73;97837.88;250237;1152;22915;-73
2020/12/25 00:07:46;;;;;;;3.43;2.70;;;;;;;2.70;86.99;97840.52;250193;1148;22971;-76
2020/12/25 00:12:49;;;;;;;3.80;2.83;;;;;;;2.70;87.21;97852.94;250249;1148;22973;-75
2020/12/25 00:17:51;;;;;;;4.20;2.90;;;;;;;2.69;87.41;97856.66;250205;1148;23005;-73
2020/12/25 00:22:53;;;;;;;4.90;3.50;;;;;;;2.68;87.61;97860.34;250116;1152;22906;-74
2020/12/25 00:27:55;;;;;;;4.10;2.87;;;;;;;2.71;87.46;97865.11;249982;1148;24046;-75
2020/12/25 00:32:58;;;;;;;5.70;3.23;;;;;;;2.73;87.50;97874.38;249789;1149;23337;-73
2020/12/25 00:38:00;;;;;;;5.37;3.97;;;;;;;2.71;87.94;97880.98;250077;1148;22931;-77
2020/12/25 00:43:03;;;;;;;6.80;3.85;;;;;;;2.72;87.65;97901.09;250033;1152;22874;-73
2020/12/25 00:48:05;;;;;;;5.13;3.40;;;;;;;2.78;87.46;97905.34;250053;1152;23488;-75
2020/12/25 00:53:08;;;;;;;5.83;4.20;;;;;;;2.81;87.78;97910.13;250068;1151;22931;-75
2020/12/25 00:58:11;;;;;;;7.87;4.20;;;;;;;2.80;87.60;97918.30;249963;1152;22905;-73
2020/12/25 01:03:14;;;;;;;5.43;3.27;;;;;;;2.80;88.10;97926.23;249720;1147;22994;-73
2020/12/25 01:08:16;;;;;;;6.40;3.33;;;;;;;2.80;88.40;97927.05;250005;1148;22925;-73
2020/12/25 01:13:18;;;;;;;3.80;3.20;;;;;;;2.83;87.92;97945.05;250050;1148;22922;-75
2020/12/25 01:18:21;;;;;;;4.50;3.03;;;;;;;2.85;87.85;97950.86;250162;1147;25989;-75
2020/12/25 01:23:23;;;;;;;3.67;2.90;;;;;;;2.87;88.16;97958.56;249879;1150;22974;-74
2020/12/25 01:28:26;;;;;;;3.60;2.80;;;;;;;2.95;88.12;97957.26;249852;1155;22951;-75
2020/12/25 01:33:33;;;;;;;2.95;2.60;;;;;;;2.95;87.70;97959.91;249787;1148;23122;-75
2020/12/25 01:38:35;;;;;;;3.00;2.70;;;;;;;2.93;88.05;97964.67;249802;1148;22929;-75
2020/12/25 01:43:38;;;;;;;4.80;3.57;;;;;;;2.95;88.01;97970.48;249960;1148;22950;-75
2020/12/25 01:48:43;;;;;;;3.00;2.40;;;;;;;2.94;87.85;97976.83;250183;1148;22953;-76
2020/12/25 01:53:48;;;;;;;5.23;3.00;;;;;;;2.91;88.03;97976.30;249828;1148;26400;-75
2020/12/25 01:58:51;;;;;;;3.57;2.03;;;;;;;2.92;87.84;97974.44;250019;1155;23519;-76
2020/12/25 02:03:53;;;;;;;2.37;2.13;;;;;;;2.93;87.99;97977.91;250027;1148;23085;-75
2020/12/25 02:08:55;;;;;;;3.60;2.70;;;;;;;2.92;88.30;97985.02;249975;1148;22980;-75
2020/12/25 02:13:57;;;;;;;2.97;2.53;;;;;;;2.89;87.65;97975.75;249756;1145;22934;-75
2020/12/25 02:18:59;;;;;;;3.33;2.83;;;;;;;2.90;87.96;97979.20;249819;1156;22977;-75
2020/12/25 02:24:02;;;;;;;3.90;2.83;;;;;;;2.86;88.37;97986.84;250064;1153;23091;-75
2020/12/25 02:29:04;;;;;;;4.33;2.83;;;;;;;2.86;88.37;97994.78;250143;1152;22950;-75
2020/12/25 02:34:06;;;;;;;3.40;3.03;;;;;;;2.83;88.08;98000.59;249838;1151;22931;-75
2020/12/25 02:39:08;;;;;;;3.80;3.40;;;;;;;2.83;88.53;98005.88;249945;1148;22953;-76
2020/12/25 02:44:10;;;;;;;3.87;3.13;;;;;;;2.83;88.72;98005.88;249848;1148;22929;-72
2020/12/25 02:49:12;;;;;;;3.20;2.53;;;;;;;2.81;88.42;98018.59;249815;1148;22953;-75
2020/12/25 02:54:14;;;;;;;6.97;3.20;;;;;;;2.79;88.54;98015.38;249775;1151;22928;-74
2020/12/25 02:59:16;;;;;;;3.00;2.70;;;;;;;2.78;88.23;98029.66;249809;1156;22954;-75
2020/12/25 03:04:20;;;;;;;4.10;3.00;;;;;;;2.80;89.02;98021.45;249816;1148;23028;-76
2020/12/25 03:09:22;;;;;;;4.73;2.77;;;;;;;2.80;88.50;98029.39;249869;1148;22925;-75
2020/12/25 03:14:24;;;;;;;3.77;2.30;;;;;;;2.80;88.20;98026.75;249753;1148;22929;-74
2020/12/25 03:19:26;;;;;;;2.90;2.53;;;;;;;2.78;88.26;98028.87;249820;1156;22932;-75
2020/12/25 03:24:28;;;;;;;3.20;2.63;;;;;;;2.77;88.09;98041.30;250024;1148;22972;-75
2020/12/25 03:29:30;;;;;;;2.85;2.40;;;;;;;2.74;88.20;98039.97;250130;1150;22957;-73
2020/12/25 03:34:33;;;;;;;3.03;2.23;;;;;;;2.74;88.25;98041.80;249832;1148;22929;-73
2020/12/25 03:39:35;;;;;;;2.20;2.00;;;;;;;2.71;88.10;98040.48;249789;1155;22940;-75
2020/12/25 03:44:37;;;;;;;2.10;1.80;;;;;;;2.68;88.14;98054.19;249792;1148;22959;-73
2020/12/25 03:49:39;;;;;;;2.27;1.70;;;;;;;2.67;87.81;98055.26;250153;1148;26517;-76
2020/12/25 03:54:41;;;;;;;2.73;2.03;;;;;;;2.65;87.94;98059.98;249980;1148;23011;-74
2020/12/25 03:59:44;;;;;;;2.63;1.70;;;;;;;2.62;87.84;98063.15;249791;1148;22921;-76
2020/12/25 04:04:46;;;;;;;2.77;1.80;;;;;;;2.53;87.91;98060.19;249990;1148;27360;-75
2020/12/25 04:09:48;;;;;;;2.13;1.97;;;;;;;2.50;87.88;98068.59;250109;1148;22966;-75
2020/12/25 04:14:50;;;;;;;2.63;2.07;;;;;;;2.46;87.87;98062.22;249768;1148;22953;-75
2020/12/25 04:19:52;;;;;;;3.37;2.17;;;;;;;2.41;87.95;98064.84;249760;1156;22941;-73
2020/12/25 04:24:54;;;;;;;3.27;2.30;;;;;;;2.35;87.48;98071.12;249922;1148;26531;-75
2020/12/25 04:29:56;;;;;;;3.43;2.70;;;;;;;2.34;87.69;98077.47;249927;1155;22932;-75
2020/12/25 04:34:58;;;;;;;2.47;2.27;;;;;;;2.33;87.87;98070.59;250048;1147;23011;-75
2020/12/25 04:40:03;;;;;;;2.40;1.90;;;;;;;2.29;88.03;98069.49;249749;1148;22954;-76
2020/12/25 04:45:07;;;;;;;2.07;1.80;;;;;;;2.20;87.80;98072.59;250011;1148;23104;-76
2020/12/25 04:50:09;;;;;;;3.37;2.33;;;;;;;2.18;87.51;98082.63;250102;1152;22963;-75
2020/12/25 04:55:11;;;;;;;2.57;2.23;;;;;;;2.19;87.99;98078.91;249866;1148;23005;-76
2020/12/25 05:00:21;;;;;;;3.50;2.40;;;;;;;2.21;88.34;98079.48;249723;1155;22923;-76
2020/12/25 05:05:29;;;;;;;2.27;2.08;;;;;;;2.22;87.89;98081.08;250281;1148;22939;-73
2020/12/25 05:10:31;;;;;;;2.80;2.10;;;;;;;2.24;88.14;98094.04;249867;1148;23024;-76
2020/12/25 05:15:33;;;;;;;3.50;2.57;;;;;;;2.29;88.39;98109.92;249881;1150;23008;-74
2020/12/25 05:20:37;;;;;;;2.70;2.05;;;;;;;2.33;87.87;98112.88;249806;1155;22982;-77
2020/12/25 05:25:40;;;;;;;2.65;2.25;;;;;;;2.39;87.55;98125.08;249822;1146;22972;-75
2020/12/25 05:30:44;;;;;;;2.30;2.10;;;;;;;2.51;88.11;98123.08;249868;1155;22963;-75
2020/12/25 05:35:51;;;;;;;3.20;2.40;;;;;;;2.55;88.03;98126.03;249954;1148;23169;-74
2020/12/25 05:40:54;;;;;;;4.47;3.50;;;;;;;2.56;88.14;98131.06;249938;1155;22928;-75
2020/12/25 05:45:56;;;;;;;3.70;2.90;;;;;;;2.57;87.81;98145.07;249902;1148;22984;-75
2020/12/25 05:50:58;;;;;;;2.70;2.47;;;;;;;2.62;87.57;98136.41;250135;1148;22928;-75
2020/12/25 05:56:01;;;;;;;2.80;2.60;;;;;;;2.70;88.30;98154.44;249885;1148;23414;-73
2020/12/25 06:01:03;;;;;;;3.30;2.50;;;;;;;2.78;88.25;98159.27;249779;1148;22954;-76
2020/12/25 06:06:13;;;;;;;6.95;4.10;;;;;;;2.83;87.96;98166.47;249986;1148;22950;-75
2020/12/25 06:11:16;;;;;;;7.97;4.30;;;;;;;2.80;87.49;98169.59;250213;1151;22930;-74
2020/12/25 06:16:21;;;;;;;3.43;2.57;;;;;;;2.81;87.21;98176.48;249895;1148;22935;-75
2020/12/25 06:21:33;;;;;;;3.60;3.07;;;;;;;2.80;87.79;98191.57;249744;1148;22929;-75
2020/12/25 06:26:35;;;;;;;3.60;2.60;;;;;;;2.78;87.44;98187.58;250020;1147;22969;-75
2020/12/25 06:31:46;;;;;;;5.13;3.73;;;;;;;2.79;87.74;98197.11;249826;1148;25976;-76
2020/12/25 06:36:48;;;;;;;5.53;3.73;;;;;;;2.84;87.48;98203.24;249788;1148;22932;-76
2020/12/25 06:41:50;;;;;;;3.43;2.37;;;;;;;2.95;87.76;98204.11;249761;1148;22950;-76
2020/12/25 06:46:52;;;;;;;3.60;2.60;;;;;;;2.96;88.05;98215.51;249732;1148;23020;-76
2020/12/25 06:51:54;;;;;;;3.67;2.87;;;;;;;2.94;87.37;98217.59;250220;1153;23385;-75
2020/12/25 06:56:57;;;;;;;6.67;4.30;;;;;;;2.95;87.87;98227.13;250167;1148;23169;-76
2020/12/25 07:02:01;;;;;;;5.00;4.10;;;;;;;2.91;87.40;98222.35;249881;1148;22957;-75
2020/12/25 07:07:07;;;;;;;4.73;3.77;;;;;;;2.91;87.40;98229.50;250010;1148;22957;-75
2020/12/25 07:12:12;;;;;;;3.47;2.73;;;;;;;2.97;87.84;98230.34;249810;1151;23466;-75
2020/12/25 07:17:16;;;;;;;2.60;2.30;;;;;;;3.01;87.73;98228.79;249868;1150;22935;-73
2020/12/25 07:22:20;;;;;;;5.07;2.90;;;;;;;2.99;87.55;98244.11;250153;1149;24409;-74
2020/12/25 07:27:23;;;;;;;8.10;4.30;;;;;;;2.93;87.49;98235.33;250176;1148;22934;-76
2020/12/25 07:32:25;;;;;;;9.90;5.60;;;;;;;2.95;87.76;98246.44;249930;1150;22963;-75
2020/12/25 07:37:27;;;;;;;10.10;6.33;;;;;;;3.04;88.04;98249.45;249849;1148;23092;-75
2020/12/25 07:42:29;;;;;;;8.83;5.70;;;;;;;3.07;88.25;98260.31;249811;1156;22980;-75
2020/12/25 07:47:31;;;;;;;11.17;6.20;;;;;;;3.10;88.16;98263.52;250012;1148;22925;-76
2020/12/25 07:52:33;;;;;;;7.87;5.63;;;;;;;3.16;88.19;98267.80;249835;1155;22954;-72
2020/12/25 07:57:50;;;;;;;8.63;6.50;;;;;;;3.18;88.33;98257.77;249756;1148;22935;-76
2020/12/25 08:02:54;;;;;;;9.93;7.13;;;;;;;3.19;88.27;98268.11;249964;1149;23388;-75
2020/12/25 08:07:57;;;;;;;11.90;7.47;;;;;;;3.16;87.99;98268.62;249980;1148;23010;-76
2020/12/25 08:13:00;;;;;;;11.25;8.30;;;;;;;3.17;88.33;98278.13;249884;1148;23051;-75
2020/12/25 08:18:07;;;;;;;11.47;6.70;;;;;;;3.21;88.44;98281.88;250529;1148;22957;-76
2020/12/25 08:23:09;;;;;;;12.55;7.40;;;;;;;3.25;88.11;98285.61;249915;1148;26517;-74
2020/12/25 08:28:12;;;;;;;13.05;7.80;;;;;;;3.27;88.44;98301.25;250060;1148;23013;-76
2020/12/25 08:33:23;;;;;;;13.40;8.43;;;;;;;3.31;88.67;98304.98;249805;1148;22957;-74
2020/12/25 08:38:40;;;;;;;14.05;9.05;;;;;;;3.37;88.69;98308.47;249964;1148;23011;-75
2020/12/25 08:43:43;;;;;;;12.00;8.23;;;;;;;3.44;88.35;98311.70;250054;1150;23088;-76
2020/12/25 08:48:51;;;;;;;12.07;8.60;;;;;;;3.51;88.60;98312.31;250114;1148;23092;-77
2020/12/25 08:53:54;;;;;;;11.20;7.83;;;;;;;3.61;88.30;98322.19;250519;1148;22932;-77
2020/12/25 08:58:58;;;;;;;7.55;5.60;;;;;;;3.64;87.87;98320.86;250035;1152;22922;-75
2020/12/25 09:04:00;;;;;;;8.17;5.37;;;;;;;3.64;88.07;98328.80;249856;1148;27502;-75
2020/12/25 09:09:03;;;;;;;9.13;5.63;;;;;;;3.65;88.11;98333.06;250086;1148;22957;-75
2020/12/25 09:14:05;;;;;;;4.97;3.87;;;;;;;3.61;88.07;98330.14;249929;1155;23086;-74
2020/12/25 09:19:08;;;;;;;7.60;4.50;;;;;;;3.51;87.85;98338.80;249793;1148;23320;-76
2020/12/25 09:24:10;;;;;;;5.67;4.40;;;;;;;3.39;87.68;98346.11;250138;1155;22929;-75
2020/12/25 09:29:12;;;;;;;5.10;3.40;;;;;;;3.31;87.77;98352.64;249969;1148;22921;-78
2020/12/25 09:34:15;;;;;;;2.97;2.43;;;;;;;3.27;88.06;98356.05;250112;1148;26021;-79
2020/12/25 09:39:20;;;;;;;3.15;1.80;;;;;;;3.26;87.62;98355.27;250637;1150;22940;-76
2020/12/25 09:44:22;;;;;;;2.53;1.90;;;;;;;3.20;88.11;98357.03;250039;1156;22960;-75
2020/12/25 09:49:24;;;;;;;1.43;1.23;;;;;;;3.15;87.91;98354.36;249887;1148;23025;-76
2020/12/25 09:54:26;;;;;;;3.20;1.70;;;;;;;3.12;87.75;98360.16;249811;1148;22931;-76
2020/12/25 09:59:28;;;;;;;1.80;1.70;;;;;;;3.08;87.75;98359.84;249891;1151;24440;-76
2020/12/25 10:04:30;;;;;;;2.03;1.70;;;;;;;3.10;87.64;98350.86;250149;1150;22947;-76
2020/12/25 10:09:33;;;;;;;3.20;2.10;;;;;;;3.12;87.75;98352.22;249862;1148;22967;-75
2020/12/25 10:14:35;;;;;;;3.50;2.55;;;;;;;3.14;87.69;98371.28;249933;1155;22953;-76
2020/12/25 10:19:37;;;;;;;2.93;1.90;;;;;;;3.18;88.11;98368.94;250412;1148;22960;-75
2020/12/25 10:24:40;;;;;;;2.53;1.40;;;;;;;3.18;87.83;98367.09;250150;1148;23117;-79
2020/12/25 10:29:43;;;;;;;2.63;1.60;;;;;;;3.20;88.24;98364.19;250178;1148;22889;-81
2020/12/25 10:34:46;;;;;;;2.40;1.90;;;;;;;3.30;87.98;98366.13;250051;1148;27303;-76
2020/12/25 10:39:48;;;;;;;3.33;1.80;;;;;;;3.34;87.94;98361.94;250085;1148;22918;-75
2020/12/25 10:44:50;;;;;;;3.50;2.35;;;;;;;3.36;87.73;98388.98;249887;1148;23069;-73
2020/12/25 10:49:52;;;;;;;3.90;2.40;;;;;;;3.37;87.16;98385.26;249986;1155;23079;-76
2020/12/25 10:54:54;;;;;;;3.90;2.35;;;;;;;3.35;87.46;98374.92;250209;1151;23088;-76
2020/12/25 10:59:56;;;;;;;4.53;2.73;;;;;;;3.36;87.56;98384.47;250159;1147;23417;-75
2020/12/25 11:04:59;;;;;;;3.30;2.70;;;;;;;3.39;87.29;98380.53;249704;1151;22953;-75
2020/12/25 11:10:01;;;;;;;5.37;2.80;;;;;;;3.41;87.46;98381.06;249825;1151;23085;-75
2020/12/25 11:15:04;;;;;;;4.07;3.13;;;;;;;3.53;87.61;98378.27;249726;1148;25106;-76
2020/12/25 11:20:06;;;;;;;6.15;3.40;;;;;;;3.58;87.05;98375.64;249812;1155;22924;-74
2020/12/25 11:25:08;;;;;;;5.17;3.03;;;;;;;3.58;87.39;98379.11;249875;1148;23647;-73
2020/12/25 11:30:10;;;;;;;4.70;3.27;;;;;;;3.68;87.07;98375.75;250014;1148;22935;-75
2020/12/25 11:35:12;;;;;;;3.53;3.07;;;;;;;3.76;87.40;98372.64;250213;1148;22921;-76
2020/12/25 11:40:15;;;;;;;5.25;3.10;;;;;;;3.80;86.74;98374.77;250253;1148;22922;-75
2020/12/25 11:45:17;;;;;;;5.25;2.90;;;;;;;3.80;86.84;98378.21;250475;1148;23097;-76
2020/12/25 11:50:19;;;;;;;6.17;4.30;;;;;;;3.87;86.67;98378.80;250338;1152;23038;-76
2020/12/25 11:55:22;;;;;;;3.77;3.00;;;;;;;3.98;86.71;98384.19;250191;1148;22951;-76
2020/12/25 12:00:24;;;;;;;4.43;3.37;;;;;;;3.94;86.22;98394.48;250227;1148;22971;-76
2020/12/25 12:05:26;;;;;;;5.57;3.70;;;;;;;3.84;86.05;98399.72;250262;1147;22956;-75
2020/12/25 12:10:29;;;;;;;5.15;3.40;;;;;;;3.65;85.63;98404.58;249862;1151;22935;-75
2020/12/25 12:15:36;;;;;;;4.10;2.60;;;;;;;3.44;85.80;98407.03;250117;1147;22922;-74
2020/12/25 12:20:39;;;;;;;3.00;2.03;;;;;;;3.23;85.73;98411.33;250196;1147;23089;-77
2020/12/25 12:25:42;;;;;;;3.40;2.00;;;;;;;3.03;86.36;98419.86;249720;1148;22934;-74
2020/12/25 12:30:47;;;;;;;4.30;2.90;;;;;;;2.90;86.52;98413.10;249785;1156;23083;-74
2020/12/25 12:35:50;;;;;;;7.20;3.53;;;;;;;2.87;87.08;98418.89;250284;1148;23066;-76
2020/12/25 12:40:52;;;;;;;3.73;2.80;;;;;;;2.89;87.52;98428.16;250122;1148;22906;-74
2020/12/25 12:45:55;;;;;;;3.87;2.57;;;;;;;2.82;87.02;98427.55;250370;1148;22906;-76
2020/12/25 12:50:57;;;;;;;3.50;2.57;;;;;;;2.72;86.63;98425.57;249994;1148;22970;-75
2020/12/25 12:56:00;;;;;;;3.67;2.70;;;;;;;2.64;86.81;98422.56;249742;1148;22921;-76
2020/12/25 13:01:02;;;;;;;4.50;3.07;;;;;;;2.65;87.29;98430.25;249751;1155;25555;-80
2020/12/25 13:06:04;;;;;;;5.57;3.40;;;;;;;2.71;87.83;98442.52;250404;1151;22909;-75
2020/12/25 13:11:07;;;;;;;4.13;3.13;;;;;;;2.77;87.71;98440.73;250260;1148;27636;-73
2020/12/25 13:16:09;;;;;;;9.07;4.33;;;;;;;2.84;88.05;98441.34;249934;1148;23337;-77
2020/12/25 13:21:18;;;;;;;7.05;4.15;;;;;;;2.90;87.67;98444.85;249918;1155;22933;-74
2020/12/25 13:26:21;;;;;;;8.37;3.97;;;;;;;2.99;87.61;98455.80;249787;1148;22947;-77
2020/12/25 13:31:26;;;;;;;4.63;3.37;;;;;;;3.00;87.40;98449.47;249894;1149;24895;-75
2020/12/25 13:36:28;;;;;;;6.20;3.40;;;;;;;2.91;87.25;98452.54;250296;1148;22952;-76
2020/12/25 13:41:30;;;;;;;3.55;2.45;;;;;;;2.80;86.39;98466.69;250624;1152;23037;-76
2020/12/25 13:46:32;;;;;;;2.55;1.80;;;;;;;2.69;86.10;98472.89;250160;1148;22998;-77
2020/12/25 13:51:34;;;;;;;3.57;2.30;;;;;;;2.60;86.48;98477.77;250142;1151;22919;-75
2020/12/25 13:56:37;;;;;;;2.85;1.85;;;;;;;2.55;86.04;98494.38;250359;1148;23079;-75
2020/12/25 14:01:40;;;;;;;2.60;2.00;;;;;;;2.54;86.41;98495.41;250160;1148;23371;-76
2020/12/25 14:06:42;;;;;;;2.80;1.77;;;;;;;2.53;86.04;98493.84;250055;1148;26089;-76
2020/12/25 14:11:44;;;;;;;3.23;1.90;;;;;;;2.50;85.83;98504.08;250520;1148;23077;-75
2020/12/25 14:16:50;;;;;;;1.97;1.63;;;;;;;2.48;85.72;98508.83;249844;1148;27666;-82
2020/12/25 14:21:52;;;;;;;2.15;1.65;;;;;;;2.43;85.74;98512.17;249783;1148;22940;-74
2020/12/25 14:26:54;;;;;;;3.07;1.90;;;;;;;2.38;85.58;98512.11;250130;1147;22909;-74
2020/12/25 14:31:56;;;;;;;5.07;2.50;;;;;;;2.36;85.11;98514.18;250124;1152;22907;-77
2020/12/25 14:36:59;;;;;;;4.03;2.10;;;;;;;2.38;86.11;98527.97;250185;1148;22934;-76
2020/12/25 14:42:02;;;;;;;4.15;1.85;;;;;;;2.36;85.32;98535.33;250207;1152;22924;-76
2020/12/25 14:47:04;;;;;;;6.00;2.45;;;;;;;2.31;85.79;98549.28;250238;1148;23033;-76
2020/12/25 14:52:07;;;;;;;2.73;1.83;;;;;;;2.28;85.05;98548.94;250255;1152;22951;-77
2020/12/25 14:57:10;;;;;;;4.00;2.50;;;;;;;2.27;85.10;98552.61;250477;1147;22988;-76
2020/12/25 15:02:12;;;;;;;3.70;2.30;;;;;;;2.26;85.19;98572.18;250309;1148;22909;-75
2020/12/25 15:07:14;;;;;;;4.77;2.10;;;;;;;2.23;85.15;98574.25;250269;1148;23389;-77
2020/12/25 15:12:16;;;;;;;3.40;2.10;;;;;;;2.26;85.07;98578.26;249906;1148;23298;-73
2020/12/25 15:17:19;;;;;;;4.37;2.80;;;;;;;2.29;85.07;98582.27;249890;1155;22913;-76
2020/12/25 15:22:21;;;;;;;5.25;3.00;;;;;;;2.30;85.23;98584.67;250209;1148;23306;-75
2020/12/25 15:27:23;;;;;;;5.25;2.85;;;;;;;2.28;85.72;98584.13;250024;1148;23392;-76
2020/12/25 15:32:25;;;;;;;6.67;2.73;;;;;;;2.29;85.46;98587.56;250032;1148;22921;-75
2020/12/25 15:37:26;;;;;;;4.90;2.60;;;;;;;2.27;84.88;98592.27;250305;1148;22904;-76
2020/12/25 15:42:28;;;;;;;4.30;2.77;;;;;;;2.23;84.76;98594.60;250335;1147;22928;-75
2020/12/25 15:47:31;;;;;;;4.60;2.43;;;;;;;2.21;84.53;98586.91;250265;1148;22931;-78
2020/12/25 15:52:33;;;;;;;3.65;2.25;;;;;;;2.23;84.80;98589.31;250374;1152;22928;-74
2020/12/25 15:57:37;;;;;;;5.23;2.87;;;;;;;2.23;84.36;98590.11;250254;1147;23564;-76
2020/12/25 16:02:50;;;;;;;5.10;2.85;;;;;;;2.18;84.45;98605.08;250285;1153;23076;-76
2020/12/25 16:07:54;;;;;;;6.60;3.37;;;;;;;2.11;83.92;98607.86;250419;1148;22956;-75
2020/12/25 16:12:56;;;;;;;7.37;3.50;;;;;;;2.08;84.39;98618.91;250065;1148;22916;-76
2020/12/25 16:17:58;;;;;;;5.35;3.20;;;;;;;2.12;83.93;98621.89;250109;1148;22923;-78
2020/12/25 16:23:01;;;;;;;3.77;2.80;;;;;;;2.07;84.23;98619.14;250460;1148;22922;-76
2020/12/25 16:28:03;;;;;;;5.87;3.17;;;;;;;2.01;83.75;98626.97;250273;1148;22983;-75
2020/12/25 16:33:05;;;;;;;8.65;4.45;;;;;;;1.98;83.63;98632.73;249983;1148;23014;-75
2020/12/25 16:38:07;;;;;;;7.77;4.17;;;;;;;1.94;83.98;98636.09;250060;1148;22927;-75
2020/12/25 16:43:09;;;;;;;9.65;4.55;;;;;;;1.89;84.30;98642.08;250040;1155;22925;-76
2020/12/25 16:48:11;;;;;;;7.93;4.00;;;;;;;1.85;84.14;98647.02;249993;1148;22929;-74
2020/12/25 16:53:13;;;;;;;6.07;3.40;;;;;;;1.85;84.05;98649.66;249969;1148;22953;-79
2020/12/25 16:58:16;;;;;;;7.73;3.60;;;;;;;1.83;83.79;98638.54;249971;1148;22926;-76
2020/12/25 17:03:17;;;;;;;9.70;4.57;;;;;;;1.82;84.28;98647.49;249904;1155;22925;-76
2020/12/25 17:08:19;;;;;;;7.83;4.17;;;;;;;1.84;84.34;98649.90;249918;1148;23014;-77
2020/12/25 17:13:22;;;;;;;7.97;4.70;;;;;;;1.82;84.45;98644.85;249947;1148;23088;-74
2020/12/25 17:18:24;;;;;;;8.33;4.20;;;;;;;1.83;84.44;98645.64;249922;1148;22981;-78
2020/12/25 17:23:26;;;;;;;10.17;4.27;;;;;;;1.80;84.17;98648.76;249904;1155;22957;-77
2020/12/25 17:28:28;;;;;;;7.03;3.90;;;;;;;1.77;84.45;98642.09;249831;1148;22980;-76
2020/12/25 17:33:30;;;;;;;7.90;3.65;;;;;;;1.75;84.66;98652.11;250011;1155;22908;-75
2020/12/25 17:38:32;;;;;;;5.83;3.07;;;;;;;1.74;84.60;98653.13;249783;1148;22925;-77
2020/12/25 17:43:39;;;;;;;5.67;3.00;;;;;;;1.74;84.04;98661.06;249860;1155;22947;-76
2020/12/25 17:48:44;;;;;;;5.30;3.20;;;;;;;1.72;84.35;98655.19;249923;1148;26440;-76
2020/12/25 17:54:06;;;;;;;5.87;4.10;;;;;;;1.69;84.69;98668.87;249828;1156;23088;-75
2020/12/25 17:59:08;;;;;;;6.50;3.20;;;;;;;1.68;83.97;98678.64;249943;1148;25979;-75
2020/12/25 18:04:11;;;;;;;4.73;2.57;;;;;;;1.64;84.51;98680.14;249857;1155;23049;-75
2020/12/25 18:09:14;;;;;;;6.40;3.30;;;;;;;1.61;83.93;98692.98;249902;1148;22956;-75
2020/12/25 18:14:16;;;;;;;6.50;3.65;;;;;;;1.59;84.29;98693.22;249825;1156;23014;-75
2020/12/25 18:19:18;;;;;;;8.80;4.70;;;;;;;1.63;84.86;98704.14;249874;1155;24421;-76
2020/12/25 18:24:20;;;;;;;7.40;4.25;;;;;;;1.61;84.68;98714.11;249988;1156;22921;-75
2020/12/25 18:29:22;;;;;;;6.17;4.13;;;;;;;1.56;84.42;98720.09;249987;1148;23029;-77
2020/12/25 18:34:24;;;;;;;6.33;3.77;;;;;;;1.55;84.03;98723.77;249834;1151;23389;-76
2020/12/25 18:39:29;;;;;;;6.77;4.40;;;;;;;1.53;84.32;98723.20;249695;1149;26392;-76
2020/12/25 18:44:32;;;;;;;6.73;3.93;;;;;;;1.48;84.17;98720.44;249783;1151;22912;-73
2020/12/25 18:49:34;;;;;;;6.60;4.40;;;;;;;1.44;84.25;98719.29;249906;1148;22939;-76
2020/12/25 18:54:36;;;;;;;5.93;3.70;;;;;;;1.44;83.85;98730.67;249729;1148;24588;-75
2020/12/25 18:59:43;;;;;;;6.23;3.80;;;;;;;1.42;84.10;98739.84;249796;1151;22950;-78
2020/12/25 19:04:45;;;;;;;5.37;3.40;;;;;;;1.41;83.85;98752.22;249895;1155;23056;-77
2020/12/25 19:09:47;;;;;;;5.07;3.40;;;;;;;1.39;83.29;98751.66;249780;1148;23092;-77
2020/12/25 19:14:49;;;;;;;5.53;3.60;;;;;;;1.33;82.62;98749.92;249768;1149;23089;-74
2020/12/25 19:19:51;;;;;;;6.10;3.30;;;;;;;1.28;82.94;98745.33;249823;1148;23392;-77
2020/12/25 19:24:53;;;;;;;5.27;3.37;;;;;;;1.22;82.68;98746.26;249966;1148;22928;-85
2020/12/25 19:29:58;;;;;;;5.13;3.10;;;;;;;1.22;83.09;98751.53;249974;1156;22950;-77
2020/12/25 19:35:00;;;;;;;3.90;2.60;;;;;;;1.22;82.57;98743.62;249784;1148;22932;-77
2020/12/25 19:40:07;;;;;;;5.40;2.70;;;;;;;1.22;82.18;98755.98;249875;1148;22970;-76
2020/12/25 19:45:10;;;;;;;4.83;2.43;;;;;;;1.22;81.91;98771.82;249933;1147;26470;-76
2020/12/25 19:50:13;;;;;;;5.07;2.73;;;;;;;1.24;82.05;98781.13;249896;1148;22974;-76
2020/12/25 19:55:15;;;;;;;3.75;2.30;;;;;;;1.23;81.29;98791.91;249965;1155;22953;-76
2020/12/25 20:00:17;;;;;;;5.77;3.07;;;;;;;1.21;80.85;98788.71;249846;1155;23014;-76
2020/12/25 20:05:20;;;;;;;3.70;2.60;;;;;;;1.20;81.66;98798.44;249747;1151;22926;-76
2020/12/25 20:10:22;;;;;;;4.37;2.83;;;;;;;1.18;81.24;98800.52;249909;1150;26427;-75
2020/12/25 20:15:24;;;;;;;5.40;3.07;;;;;;;1.20;81.67;98803.72;249948;1151;22879;-76
2020/12/25 20:20:30;;;;;;;6.50;3.30;;;;;;;1.22;81.56;98806.13;249918;1150;23359;-77
2020/12/25 20:25:33;;;;;;;5.13;3.30;;;;;;;1.18;81.39;98805.80;249764;1151;22925;-77
2020/12/25 20:30:35;;;;;;;5.20;3.47;;;;;;;1.14;81.35;98804.63;249406;1151;22973;-77
2020/12/25 20:35:37;;;;;;;5.37;3.70;;;;;;;1.09;81.46;98815.05;249798;1148;23454;-76
2020/12/25 20:40:39;;;;;;;4.90;2.93;;;;;;;1.01;81.25;98811.70;249891;1155;22953;-74
2020/12/25 20:45:42;;;;;;;4.53;3.07;;;;;;;0.93;81.52;98827.84;249772;1155;22929;-77
2020/12/25 20:50:44;;;;;;;6.57;4.23;;;;;;;0.92;81.72;98825.44;249955;1155;22926;-76
2020/12/25 20:55:46;;;;;;;9.60;4.70;;;;;;;0.88;82.11;98816.36;249971;1148;22947;-77
2020/12/25 21:00:48;;;;;;;8.75;4.85;;;;;;;0.86;81.70;98811.31;249860;1148;23066;-77
2020/12/25 21:05:51;;;;;;;8.77;4.03;;;;;;;0.83;82.30;98817.83;250211;1151;23379;-77
2020/12/25 21:10:53;;;;;;;6.97;4.70;;;;;;;0.82;82.25;98826.77;249960;1148;22947;-76
2020/12/25 21:15:56;;;;;;;9.87;5.00;;;;;;;0.81;82.15;98829.63;250096;1148;22939;-77
2020/12/25 21:20:58;;;;;;;8.25;4.75;;;;;;;0.80;82.04;98844.66;249939;1148;22932;-75
2020/12/25 21:26:00;;;;;;;9.97;4.60;;;;;;;0.75;82.64;98852.42;250107;1148;27007;-77
2020/12/25 21:31:02;;;;;;;10.23;5.03;;;;;;;0.74;82.92;98853.47;249946;1151;22947;-77
2020/12/25 21:36:05;;;;;;;12.43;5.80;;;;;;;0.77;83.57;98857.47;249999;1148;26427;-76
2020/12/25 21:41:07;;;;;;;12.97;6.57;;;;;;;0.79;83.25;98858.86;250286;1148;22946;-82
2020/12/25 21:46:13;;;;;;;10.40;5.40;;;;;;;0.82;83.28;98854.98;250173;1148;22947;-77
2020/12/25 21:51:21;;;;;;;11.37;5.10;;;;;;;0.77;82.70;98854.83;250294;1148;27438;-76
2020/12/25 21:56:30;;;;;;;7.50;4.30;;;;;;;0.71;82.88;98855.73;250168;1150;22953;-76
2020/12/25 22:01:34;;;;;;;8.70;4.95;;;;;;;0.68;84.19;98854.34;250226;1155;22922;-76
2020/12/25 22:06:36;;;;;;;7.93;4.57;;;;;;;0.65;83.46;98850.31;250335;1147;22906;-76
2020/12/25 22:11:38;;;;;;;7.40;5.07;;;;;;;0.65;83.59;98860.86;250268;1148;22960;-79
2020/12/25 22:16:41;;;;;;;7.65;4.55;;;;;;;0.64;83.36;98858.45;250065;1148;22960;-76
2020/12/25 22:21:43;;;;;;;9.40;4.60;;;;;;;0.61;83.77;98864.16;249940;1155;23012;-76
2020/12/25 22:26:47;;;;;;;6.35;4.20;;;;;;;0.61;84.09;98858.89;250296;1148;23032;-78
2020/12/25 22:31:49;;;;;;;9.70;4.60;;;;;;;0.61;84.02;98856.25;250066;1155;22994;-78
2020/12/25 22:36:51;;;;;;;9.13;4.83;;;;;;;0.57;83.99;98860.36;250203;1148;22950;-75
2020/12/25 22:41:57;;;;;;;7.60;4.70;;;;;;;0.59;83.99;98863.56;250605;1148;22925;-77
2020/12/25 22:47:02;;;;;;;9.47;5.00;;;;;;;0.58;83.92;98865.41;250319;1148;23368;-74
2020/12/25 22:52:05;;;;;;;10.40;5.37;;;;;;;0.58;85.06;98869.89;250156;1155;22937;-78
2020/12/25 22:57:07;;;;;;;9.77;5.40;;;;;;;0.62;85.11;98865.78;250447;1147;23034;-74
2020/12/25 23:02:10;;;;;;;9.40;4.97;;;;;;;0.63;84.36;98872.64;250476;1148;22909;-76
2020/12/25 23:07:12;;;;;;;8.80;4.70;;;;;;;0.65;85.15;98867.97;250358;1148;22933;-75
2020/12/25 23:12:14;;;;;;;11.80;5.57;;;;;;;0.59;84.65;98871.47;250052;1155;23123;-76
2020/12/25 23:17:17;;;;;;;7.03;4.33;;;;;;;0.51;84.97;98870.75;249975;1148;25986;-76
2020/12/25 23:22:19;;;;;;;8.20;4.55;;;;;;;0.44;85.13;98883.20;249916;1148;25896;-77
2020/12/25 23:27:22;;;;;;;9.27;5.10;;;;;;;0.42;84.24;98885.27;249905;1148;24640;-74
2020/12/25 23:32:24;;;;;;;8.87;4.30;;;;;;;0.42;85.40;98893.17;250461;1153;22913;-77
2020/12/25 23:37:26;;;;;;;7.43;4.43;;;;;;;0.41;85.06;98881.01;250367;1148;22928;-77
2020/12/25 23:42:28;;;;;;;7.83;4.47;;;;;;;0.41;85.55;98888.91;250331;1148;23382;-78